sensor_id;sensor_type;location;lat;lon;timestamp;P1;durP1;ratioP1;P2;durP2;ratioP2
29246;SDS011;16272;48.188;9.964;2023-01-16T00:00:33;3.50;;;0.60;;
29246;SDS011;16272;48.188;9.964;2023-01-16T00:02:59;2.73;;;0.60;;
29246;SDS011;16272;48.188;9.964;2023-01-16T00:05:25;5.33;;;0.70;;
29246;SDS011;16272;48.188;9.964;2023-01-16T00:07:50;2.77;;;0.40;;
29246;SDS011;16272;48.188;9.964;2023-01-16T00:10:16;1.70;;;0.35;;
29246;SDS011;16272;48.188;9.964;2023-01-16T00:12:42;3.43;;;0.60;;
29246;SDS011;16272;48.188;9.964;2023-01-16T00:15:08;3.17;;;0.47;;
29246;SDS011;16272;48.188;9.964;2023-01-16T00:17:33;3.97;;;0.68;;
29246;SDS011;16272;48.188;9.964;2023-01-16T00:19:59;3.00;;;0.60;;
29246;SDS011;16272;48.188;9.964;2023-01-16T00:22:24;4.77;;;0.77;;
29246;SDS011;16272;48.188;9.964;2023-01-16T00:24:49;3.93;;;0.60;;
29246;SDS011;16272;48.188;9.964;2023-01-16T00:27:15;3.93;;;0.50;;
29246;SDS011;16272;48.188;9.964;2023-01-16T00:29:40;3.25;;;0.50;;
29246;SDS011;16272;48.188;9.964;2023-01-16T00:32:05;3.17;;;0.50;;
29246;SDS011;16272;48.188;9.964;2023-01-16T00:34:31;3.23;;;0.47;;
29246;SDS011;16272;48.188;9.964;2023-01-16T00:36:56;2.53;;;0.40;;
29246;SDS011;16272;48.188;9.964;2023-01-16T00:39:21;2.63;;;0.40;;
29246;SDS011;16272;48.188;9.964;2023-01-16T00:41:46;3.57;;;0.50;;
29246;SDS011;16272;48.188;9.964;2023-01-16T00:44:13;2.73;;;0.47;;
29246;SDS011;16272;48.188;9.964;2023-01-16T00:46:39;5.13;;;0.65;;
29246;SDS011;16272;48.188;9.964;2023-01-16T00:49:04;3.00;;;0.60;;
29246;SDS011;16272;48.188;9.964;2023-01-16T00:51:29;4.27;;;0.50;;
29246;SDS011;16272;48.188;9.964;2023-01-16T00:53:56;4.33;;;0.77;;
29246;SDS011;16272;48.188;9.964;2023-01-16T00:56:21;3.55;;;0.60;;
29246;SDS011;16272;48.188;9.964;2023-01-16T00:58:46;3.13;;;0.60;;
29246;SDS011;16272;48.188;9.964;2023-01-16T01:01:12;3.03;;;0.53;;
29246;SDS011;16272;48.188;9.964;2023-01-16T01:03:37;3.00;;;0.50;;
29246;SDS011;16272;48.188;9.964;2023-01-16T01:06:09;3.97;;;0.70;;
29246;SDS011;16272;48.188;9.964;2023-01-16T01:08:38;4.30;;;0.70;;
29246;SDS011;16272;48.188;9.964;2023-01-16T01:11:07;3.72;;;0.57;;
29246;SDS011;16272;48.188;9.964;2023-01-16T01:13:33;3.17;;;0.60;;
29246;SDS011;16272;48.188;9.964;2023-01-16T01:15:58;3.77;;;0.50;;
29246;SDS011;16272;48.188;9.964;2023-01-16T01:18:23;3.07;;;0.50;;
29246;SDS011;16272;48.188;9.964;2023-01-16T01:20:48;3.53;;;0.50;;
29246;SDS011;16272;48.188;9.964;2023-01-16T01:23:14;3.73;;;0.70;;
29246;SDS011;16272;48.188;9.964;2023-01-16T01:25:39;5.60;;;0.60;;
29246;SDS011;16272;48.188;9.964;2023-01-16T01:28:05;3.87;;;0.60;;
29246;SDS011;16272;48.188;9.964;2023-01-16T01:30:31;2.30;;;0.47;;
29246;SDS011;16272;48.188;9.964;2023-01-16T01:32:56;4.13;;;0.63;;
29246;SDS011;16272;48.188;9.964;2023-01-16T01:35:21;3.03;;;0.40;;
29246;SDS011;16272;48.188;9.964;2023-01-16T01:37:46;3.50;;;0.60;;
29246;SDS011;16272;48.188;9.964;2023-01-16T01:40:12;2.17;;;0.57;;
29246;SDS011;16272;48.188;9.964;2023-01-16T01:42:40;3.10;;;0.53;;
29246;SDS011;16272;48.188;9.964;2023-01-16T01:47:37;3.15;;;0.57;;
29246;SDS011;16272;48.188;9.964;2023-01-16T01:50:20;3.13;;;0.57;;
29246;SDS011;16272;48.188;9.964;2023-01-16T01:52:51;3.30;;;0.50;;
29246;SDS011;16272;48.188;9.964;2023-01-16T01:55:18;3.17;;;0.60;;
29246;SDS011;16272;48.188;9.964;2023-01-16T01:57:47;3.40;;;0.52;;
29246;SDS011;16272;48.188;9.964;2023-01-16T02:00:20;4.22;;;0.57;;
29246;SDS011;16272;48.188;9.964;2023-01-16T02:02:49;2.47;;;0.50;;
29246;SDS011;16272;48.188;9.964;2023-01-16T02:05:27;2.10;;;0.40;;
29246;SDS011;16272;48.188;9.964;2023-01-16T02:07:56;1.92;;;0.30;;
29246;SDS011;16272;48.188;9.964;2023-01-16T02:13:03;2.78;;;0.50;;
29246;SDS011;16272;48.188;9.964;2023-01-16T02:15:28;2.73;;;0.53;;
29246;SDS011;16272;48.188;9.964;2023-01-16T02:17:54;3.92;;;0.55;;
29246;SDS011;16272;48.188;9.964;2023-01-16T02:20:45;2.47;;;0.50;;
29246;SDS011;16272;48.188;9.964;2023-01-16T02:40:04;4.38;;;0.40;;
29246;SDS011;16272;48.188;9.964;2023-01-16T02:45:18;4.20;;;0.60;;
29246;SDS011;16272;48.188;9.964;2023-01-16T02:53:58;4.88;;;0.50;;
29246;SDS011;16272;48.188;9.964;2023-01-16T02:56:38;2.88;;;0.50;;
29246;SDS011;16272;48.188;9.964;2023-01-16T02:59:10;4.15;;;0.52;;
29246;SDS011;16272;48.188;9.964;2023-01-16T03:01:38;3.13;;;0.50;;
29246;SDS011;16272;48.188;9.964;2023-01-16T03:04:34;5.20;;;0.77;;
29246;SDS011;16272;48.188;9.964;2023-01-16T03:21:16;4.03;;;0.70;;
29246;SDS011;16272;48.188;9.964;2023-01-16T03:23:50;3.10;;;0.60;;
29246;SDS011;16272;48.188;9.964;2023-01-16T03:26:26;4.53;;;0.60;;
29246;SDS011;16272;48.188;9.964;2023-01-16T03:31:41;2.80;;;0.57;;
29246;SDS011;16272;48.188;9.964;2023-01-16T03:34:17;2.58;;;0.50;;
29246;SDS011;16272;48.188;9.964;2023-01-16T03:36:52;3.17;;;0.60;;
29246;SDS011;16272;48.188;9.964;2023-01-16T03:39:23;5.47;;;0.73;;
29246;SDS011;16272;48.188;9.964;2023-01-16T03:41:53;3.83;;;0.60;;
29246;SDS011;16272;48.188;9.964;2023-01-16T03:44:35;4.10;;;0.68;;
29246;SDS011;16272;48.188;9.964;2023-01-16T03:47:04;5.13;;;0.90;;
29246;SDS011;16272;48.188;9.964;2023-01-16T03:49:37;4.97;;;0.70;;
29246;SDS011;16272;48.188;9.964;2023-01-16T03:52:07;4.00;;;0.70;;
29246;SDS011;16272;48.188;9.964;2023-01-16T03:54:45;4.33;;;0.70;;
29246;SDS011;16272;48.188;9.964;2023-01-16T03:59:54;3.60;;;0.70;;
29246;SDS011;16272;48.188;9.964;2023-01-16T04:02:25;4.03;;;0.70;;
29246;SDS011;16272;48.188;9.964;2023-01-16T04:04:58;3.95;;;0.80;;
29246;SDS011;16272;48.188;9.964;2023-01-16T04:07:44;4.68;;;0.60;;
29246;SDS011;16272;48.188;9.964;2023-01-16T04:10:17;3.90;;;0.65;;
29246;SDS011;16272;48.188;9.964;2023-01-16T04:12:50;4.30;;;0.73;;
29246;SDS011;16272;48.188;9.964;2023-01-16T04:15:20;4.22;;;0.70;;
29246;SDS011;16272;48.188;9.964;2023-01-16T04:17:47;7.10;;;0.95;;
29246;SDS011;16272;48.188;9.964;2023-01-16T04:20:13;3.57;;;0.60;;
29246;SDS011;16272;48.188;9.964;2023-01-16T04:22:38;3.50;;;0.63;;
29246;SDS011;16272;48.188;9.964;2023-01-16T04:25:06;3.37;;;0.90;;
29246;SDS011;16272;48.188;9.964;2023-01-16T04:27:33;3.70;;;0.70;;
29246;SDS011;16272;48.188;9.964;2023-01-16T04:29:58;3.53;;;0.60;;
29246;SDS011;16272;48.188;9.964;2023-01-16T04:32:24;3.13;;;0.70;;
29246;SDS011;16272;48.188;9.964;2023-01-16T04:34:49;4.17;;;0.90;;
29246;SDS011;16272;48.188;9.964;2023-01-16T04:37:15;4.27;;;0.90;;
29246;SDS011;16272;48.188;9.964;2023-01-16T04:39:41;3.50;;;0.60;;
29246;SDS011;16272;48.188;9.964;2023-01-16T04:42:07;4.00;;;0.87;;
29246;SDS011;16272;48.188;9.964;2023-01-16T04:44:33;4.15;;;0.70;;
29246;SDS011;16272;48.188;9.964;2023-01-16T04:46:58;3.83;;;0.80;;
29246;SDS011;16272;48.188;9.964;2023-01-16T04:49:24;3.73;;;0.70;;
29246;SDS011;16272;48.188;9.964;2023-01-16T04:51:49;2.97;;;0.60;;
29246;SDS011;16272;48.188;9.964;2023-01-16T04:54:15;2.80;;;0.40;;
29246;SDS011;16272;48.188;9.964;2023-01-16T04:56:42;4.28;;;1.10;;
29246;SDS011;16272;48.188;9.964;2023-01-16T04:59:08;3.70;;;0.90;;
29246;SDS011;16272;48.188;9.964;2023-01-16T05:01:33;4.15;;;0.73;;
29246;SDS011;16272;48.188;9.964;2023-01-16T05:04:03;4.65;;;0.90;;
29246;SDS011;16272;48.188;9.964;2023-01-16T05:06:30;4.00;;;0.80;;
29246;SDS011;16272;48.188;9.964;2023-01-16T05:08:56;5.85;;;0.95;;
29246;SDS011;16272;48.188;9.964;2023-01-16T05:11:21;3.17;;;0.70;;
29246;SDS011;16272;48.188;9.964;2023-01-16T05:13:46;4.60;;;0.80;;
29246;SDS011;16272;48.188;9.964;2023-01-16T05:16:12;4.13;;;0.83;;
29246;SDS011;16272;48.188;9.964;2023-01-16T05:18:37;4.75;;;0.98;;
29246;SDS011;16272;48.188;9.964;2023-01-16T05:21:02;3.37;;;0.60;;
29246;SDS011;16272;48.188;9.964;2023-01-16T05:23:29;3.22;;;0.80;;
29246;SDS011;16272;48.188;9.964;2023-01-16T05:25:56;3.27;;;0.70;;
29246;SDS011;16272;48.188;9.964;2023-01-16T05:28:21;2.83;;;0.53;;
29246;SDS011;16272;48.188;9.964;2023-01-16T05:30:47;3.13;;;0.63;;
29246;SDS011;16272;48.188;9.964;2023-01-16T05:33:13;4.13;;;0.80;;
29246;SDS011;16272;48.188;9.964;2023-01-16T05:35:38;5.13;;;0.90;;
29246;SDS011;16272;48.188;9.964;2023-01-16T05:38:04;4.53;;;0.90;;
29246;SDS011;16272;48.188;9.964;2023-01-16T05:40:29;3.27;;;0.60;;
29246;SDS011;16272;48.188;9.964;2023-01-16T05:42:55;3.23;;;0.70;;
29246;SDS011;16272;48.188;9.964;2023-01-16T05:45:20;2.90;;;0.70;;
29246;SDS011;16272;48.188;9.964;2023-01-16T05:47:45;2.75;;;0.50;;
29246;SDS011;16272;48.188;9.964;2023-01-16T05:50:11;3.63;;;0.60;;
29246;SDS011;16272;48.188;9.964;2023-01-16T05:52:36;4.67;;;0.50;;
29246;SDS011;16272;48.188;9.964;2023-01-16T05:55:01;4.90;;;0.60;;
29246;SDS011;16272;48.188;9.964;2023-01-16T05:57:28;3.53;;;0.80;;
29246;SDS011;16272;48.188;9.964;2023-01-16T05:59:54;3.78;;;0.60;;
29246;SDS011;16272;48.188;9.964;2023-01-16T06:02:20;3.73;;;0.60;;
29246;SDS011;16272;48.188;9.964;2023-01-16T06:04:46;3.95;;;0.70;;
29246;SDS011;16272;48.188;9.964;2023-01-16T06:07:11;4.03;;;0.80;;
29246;SDS011;16272;48.188;9.964;2023-01-16T06:09:37;3.17;;;0.55;;
29246;SDS011;16272;48.188;9.964;2023-01-16T06:12:15;5.07;;;0.60;;
29246;SDS011;16272;48.188;9.964;2023-01-16T06:14:42;4.55;;;0.65;;
29246;SDS011;16272;48.188;9.964;2023-01-16T06:17:08;4.43;;;0.70;;
29246;SDS011;16272;48.188;9.964;2023-01-16T06:19:33;5.57;;;0.80;;
29246;SDS011;16272;48.188;9.964;2023-01-16T06:21:58;6.00;;;0.50;;
29246;SDS011;16272;48.188;9.964;2023-01-16T06:24:24;4.17;;;0.70;;
29246;SDS011;16272;48.188;9.964;2023-01-16T06:26:49;3.53;;;0.60;;
29246;SDS011;16272;48.188;9.964;2023-01-16T06:29:15;2.37;;;0.40;;
29246;SDS011;16272;48.188;9.964;2023-01-16T06:31:41;3.07;;;0.60;;
29246;SDS011;16272;48.188;9.964;2023-01-16T06:34:06;2.90;;;0.50;;
29246;SDS011;16272;48.188;9.964;2023-01-16T06:36:32;3.57;;;0.53;;
29246;SDS011;16272;48.188;9.964;2023-01-16T06:38:57;3.07;;;0.50;;
29246;SDS011;16272;48.188;9.964;2023-01-16T06:41:23;4.13;;;0.60;;
29246;SDS011;16272;48.188;9.964;2023-01-16T06:43:48;3.37;;;0.67;;
29246;SDS011;16272;48.188;9.964;2023-01-16T06:46:13;2.97;;;0.50;;
29246;SDS011;16272;48.188;9.964;2023-01-16T06:48:39;6.77;;;0.70;;
29246;SDS011;16272;48.188;9.964;2023-01-16T06:51:06;2.75;;;0.63;;
29246;SDS011;16272;48.188;9.964;2023-01-16T06:53:32;2.72;;;0.57;;
29246;SDS011;16272;48.188;9.964;2023-01-16T06:55:57;3.60;;;0.60;;
29246;SDS011;16272;48.188;9.964;2023-01-16T06:58:22;3.53;;;0.60;;
29246;SDS011;16272;48.188;9.964;2023-01-16T07:00:48;3.87;;;0.60;;
29246;SDS011;16272;48.188;9.964;2023-01-16T07:03:16;2.00;;;0.40;;
29246;SDS011;16272;48.188;9.964;2023-01-16T07:05:41;5.30;;;0.70;;
29246;SDS011;16272;48.188;9.964;2023-01-16T07:08:08;3.50;;;0.50;;
29246;SDS011;16272;48.188;9.964;2023-01-16T07:10:33;3.37;;;0.70;;
29246;SDS011;16272;48.188;9.964;2023-01-16T07:12:59;3.97;;;0.60;;
29246;SDS011;16272;48.188;9.964;2023-01-16T07:15:24;3.50;;;0.70;;
29246;SDS011;16272;48.188;9.964;2023-01-16T07:18:11;2.92;;;0.50;;
29246;SDS011;16272;48.188;9.964;2023-01-16T07:20:58;5.43;;;0.88;;
29246;SDS011;16272;48.188;9.964;2023-01-16T07:23:46;3.85;;;0.70;;
29246;SDS011;16272;48.188;9.964;2023-01-16T07:26:20;2.38;;;0.50;;
29246;SDS011;16272;48.188;9.964;2023-01-16T07:28:47;2.60;;;0.70;;
29246;SDS011;16272;48.188;9.964;2023-01-16T07:31:15;4.60;;;0.70;;
29246;SDS011;16272;48.188;9.964;2023-01-16T07:33:41;3.88;;;0.60;;
29246;SDS011;16272;48.188;9.964;2023-01-16T07:36:07;2.77;;;0.50;;
29246;SDS011;16272;48.188;9.964;2023-01-16T07:38:32;3.63;;;0.63;;
29246;SDS011;16272;48.188;9.964;2023-01-16T07:40:59;3.83;;;0.60;;
29246;SDS011;16272;48.188;9.964;2023-01-16T07:43:24;2.90;;;0.70;;
29246;SDS011;16272;48.188;9.964;2023-01-16T07:45:50;3.10;;;0.60;;
29246;SDS011;16272;48.188;9.964;2023-01-16T07:48:20;3.70;;;0.70;;
29246;SDS011;16272;48.188;9.964;2023-01-16T07:50:50;2.88;;;0.60;;
29246;SDS011;16272;48.188;9.964;2023-01-16T07:53:21;4.30;;;0.70;;
29246;SDS011;16272;48.188;9.964;2023-01-16T07:55:48;2.53;;;0.50;;
29246;SDS011;16272;48.188;9.964;2023-01-16T07:58:16;3.92;;;0.60;;
29246;SDS011;16272;48.188;9.964;2023-01-16T08:00:41;2.60;;;0.50;;
29246;SDS011;16272;48.188;9.964;2023-01-16T08:03:07;3.25;;;0.60;;
29246;SDS011;16272;48.188;9.964;2023-01-16T08:05:32;3.03;;;0.60;;
29246;SDS011;16272;48.188;9.964;2023-01-16T08:07:58;3.27;;;0.63;;
29246;SDS011;16272;48.188;9.964;2023-01-16T08:10:23;2.90;;;0.52;;
29246;SDS011;16272;48.188;9.964;2023-01-16T08:12:49;4.23;;;0.80;;
29246;SDS011;16272;48.188;9.964;2023-01-16T08:15:14;4.70;;;0.90;;
29246;SDS011;16272;48.188;9.964;2023-01-16T08:17:40;3.37;;;0.70;;
29246;SDS011;16272;48.188;9.964;2023-01-16T08:20:05;5.15;;;1.10;;
29246;SDS011;16272;48.188;9.964;2023-01-16T08:22:32;4.90;;;0.90;;
29246;SDS011;16272;48.188;9.964;2023-01-16T08:24:57;5.88;;;1.02;;
29246;SDS011;16272;48.188;9.964;2023-01-16T08:27:23;4.47;;;0.80;;
29246;SDS011;16272;48.188;9.964;2023-01-16T08:29:48;3.77;;;0.80;;
29246;SDS011;16272;48.188;9.964;2023-01-16T08:32:13;2.53;;;0.47;;
29246;SDS011;16272;48.188;9.964;2023-01-16T08:34:39;2.90;;;0.50;;
29246;SDS011;16272;48.188;9.964;2023-01-16T08:37:05;4.38;;;0.65;;
29246;SDS011;16272;48.188;9.964;2023-01-16T08:39:32;4.65;;;0.80;;
29246;SDS011;16272;48.188;9.964;2023-01-16T08:41:57;3.50;;;0.70;;
29246;SDS011;16272;48.188;9.964;2023-01-16T08:44:41;4.03;;;0.90;;
29246;SDS011;16272;48.188;9.964;2023-01-16T08:47:35;5.70;;;1.45;;
29246;SDS011;16272;48.188;9.964;2023-01-16T08:50:21;5.30;;;1.07;;
29246;SDS011;16272;48.188;9.964;2023-01-16T08:53:05;7.93;;;2.15;;
29246;SDS011;16272;48.188;9.964;2023-01-16T08:55:31;6.20;;;1.63;;
29246;SDS011;16272;48.188;9.964;2023-01-16T08:57:57;6.33;;;1.43;;
29246;SDS011;16272;48.188;9.964;2023-01-16T09:00:24;6.53;;;1.60;;
29246;SDS011;16272;48.188;9.964;2023-01-16T09:02:50;5.97;;;1.58;;
29246;SDS011;16272;48.188;9.964;2023-01-16T09:05:17;7.30;;;2.17;;
29246;SDS011;16272;48.188;9.964;2023-01-16T09:07:43;5.10;;;1.23;;
29246;SDS011;16272;48.188;9.964;2023-01-16T09:10:08;5.37;;;1.00;;
29246;SDS011;16272;48.188;9.964;2023-01-16T09:12:34;4.80;;;0.98;;
29246;SDS011;16272;48.188;9.964;2023-01-16T09:15:19;5.43;;;1.00;;
29246;SDS011;16272;48.188;9.964;2023-01-16T09:17:44;5.10;;;0.85;;
29246;SDS011;16272;48.188;9.964;2023-01-16T09:20:10;4.53;;;0.90;;
29246;SDS011;16272;48.188;9.964;2023-01-16T09:22:35;5.97;;;1.20;;
29246;SDS011;16272;48.188;9.964;2023-01-16T09:25:01;5.75;;;1.20;;
29246;SDS011;16272;48.188;9.964;2023-01-16T09:27:26;5.73;;;1.10;;
29246;SDS011;16272;48.188;9.964;2023-01-16T09:29:51;5.23;;;1.13;;
29246;SDS011;16272;48.188;9.964;2023-01-16T09:32:17;4.33;;;0.70;;
29246;SDS011;16272;48.188;9.964;2023-01-16T09:34:43;5.50;;;0.63;;
29246;SDS011;16272;48.188;9.964;2023-01-16T09:37:09;4.13;;;0.52;;
29246;SDS011;16272;48.188;9.964;2023-01-16T09:39:35;2.83;;;0.50;;
29246;SDS011;16272;48.188;9.964;2023-01-16T09:42:05;3.72;;;0.70;;
29246;SDS011;16272;48.188;9.964;2023-01-16T09:44:53;2.80;;;0.50;;
29246;SDS011;16272;48.188;9.964;2023-01-16T09:47:22;3.10;;;0.50;;
29246;SDS011;16272;48.188;9.964;2023-01-16T09:49:50;4.80;;;0.90;;
29246;SDS011;16272;48.188;9.964;2023-01-16T09:52:22;4.97;;;0.90;;
29246;SDS011;16272;48.188;9.964;2023-01-16T09:58:18;8.00;;;1.40;;
29246;SDS011;16272;48.188;9.964;2023-01-16T10:01:12;4.55;;;0.90;;
29246;SDS011;16272;48.188;9.964;2023-01-16T10:03:41;4.50;;;0.85;;
29246;SDS011;16272;48.188;9.964;2023-01-16T10:11:58;5.60;;;1.20;;
29246;SDS011;16272;48.188;9.964;2023-01-16T10:22:50;6.68;;;1.98;;
29246;SDS011;16272;48.188;9.964;2023-01-16T10:25:43;7.33;;;1.93;;
29246;SDS011;16272;48.188;9.964;2023-01-16T10:31:38;6.55;;;1.60;;
29246;SDS011;16272;48.188;9.964;2023-01-16T10:36:41;8.55;;;2.13;;
29246;SDS011;16272;48.188;9.964;2023-01-16T10:39:11;9.43;;;2.70;;
29246;SDS011;16272;48.188;9.964;2023-01-16T10:41:46;9.40;;;2.83;;
29246;SDS011;16272;48.188;9.964;2023-01-16T10:44:36;8.77;;;2.42;;
29246;SDS011;16272;48.188;9.964;2023-01-16T10:47:23;9.48;;;1.65;;
29246;SDS011;16272;48.188;9.964;2023-01-16T10:50:12;9.70;;;2.20;;
29246;SDS011;16272;48.188;9.964;2023-01-16T10:52:38;5.43;;;1.17;;
29246;SDS011;16272;48.188;9.964;2023-01-16T10:55:04;7.63;;;1.73;;
29246;SDS011;16272;48.188;9.964;2023-01-16T10:57:30;6.65;;;1.73;;
29246;SDS011;16272;48.188;9.964;2023-01-16T11:00:05;7.03;;;2.07;;
29246;SDS011;16272;48.188;9.964;2023-01-16T11:02:38;6.22;;;1.75;;
29246;SDS011;16272;48.188;9.964;2023-01-16T11:07:56;6.28;;;1.55;;
29246;SDS011;16272;48.188;9.964;2023-01-16T11:10:29;5.33;;;1.33;;
29246;SDS011;16272;48.188;9.964;2023-01-16T11:12:55;6.35;;;1.83;;
29246;SDS011;16272;48.188;9.964;2023-01-16T11:15:39;7.65;;;2.30;;
29246;SDS011;16272;48.188;9.964;2023-01-16T11:18:30;6.30;;;1.60;;
29246;SDS011;16272;48.188;9.964;2023-01-16T11:21:12;5.22;;;1.30;;
29246;SDS011;16272;48.188;9.964;2023-01-16T11:23:41;6.70;;;1.92;;
29246;SDS011;16272;48.188;9.964;2023-01-16T11:26:09;6.45;;;1.80;;
29246;SDS011;16272;48.188;9.964;2023-01-16T11:28:36;7.30;;;1.90;;
29246;SDS011;16272;48.188;9.964;2023-01-16T11:31:11;5.97;;;1.67;;
29246;SDS011;16272;48.188;9.964;2023-01-16T11:33:46;6.65;;;1.70;;
29246;SDS011;16272;48.188;9.964;2023-01-16T11:36:19;6.05;;;1.70;;
29246;SDS011;16272;48.188;9.964;2023-01-16T11:38:46;7.07;;;1.70;;
29246;SDS011;16272;48.188;9.964;2023-01-16T11:41:15;6.30;;;1.50;;
29246;SDS011;16272;48.188;9.964;2023-01-16T11:43:43;6.47;;;1.73;;
29246;SDS011;16272;48.188;9.964;2023-01-16T11:48:53;7.27;;;1.40;;
29246;SDS011;16272;48.188;9.964;2023-01-16T11:51:20;6.40;;;1.45;;
29246;SDS011;16272;48.188;9.964;2023-01-16T11:53:51;7.30;;;2.83;;
29246;SDS011;16272;48.188;9.964;2023-01-16T12:02:01;6.63;;;1.73;;
29246;SDS011;16272;48.188;9.964;2023-01-16T12:08:05;6.13;;;1.60;;
29246;SDS011;16272;48.188;9.964;2023-01-16T12:16:39;6.32;;;1.65;;
29246;SDS011;16272;48.188;9.964;2023-01-16T12:21:43;7.37;;;1.57;;
29246;SDS011;16272;48.188;9.964;2023-01-16T12:24:32;5.97;;;1.55;;
29246;SDS011;16272;48.188;9.964;2023-01-16T12:29:48;5.47;;;1.48;;
29246;SDS011;16272;48.188;9.964;2023-01-16T12:38:10;7.00;;;2.50;;
29246;SDS011;16272;48.188;9.964;2023-01-16T12:44:28;5.65;;;1.27;;
29246;SDS011;16272;48.188;9.964;2023-01-16T13:00:17;5.60;;;0.90;;
29246;SDS011;16272;48.188;9.964;2023-01-16T13:05:25;5.57;;;1.40;;
29246;SDS011;16272;48.188;9.964;2023-01-16T13:08:11;6.07;;;1.40;;
29246;SDS011;16272;48.188;9.964;2023-01-16T13:10:44;5.50;;;1.23;;
29246;SDS011;16272;48.188;9.964;2023-01-16T13:13:33;5.63;;;1.30;;
29246;SDS011;16272;48.188;9.964;2023-01-16T13:16:04;6.50;;;1.40;;
29246;SDS011;16272;48.188;9.964;2023-01-16T13:18:40;5.50;;;1.40;;
29246;SDS011;16272;48.188;9.964;2023-01-16T13:21:12;5.85;;;1.63;;
29246;SDS011;16272;48.188;9.964;2023-01-16T13:23:44;5.43;;;1.10;;
29246;SDS011;16272;48.188;9.964;2023-01-16T13:26:31;5.95;;;1.50;;
29246;SDS011;16272;48.188;9.964;2023-01-16T13:31:45;6.72;;;1.40;;
29246;SDS011;16272;48.188;9.964;2023-01-16T13:34:22;6.00;;;1.40;;
29246;SDS011;16272;48.188;9.964;2023-01-16T13:36:57;6.43;;;1.30;;
29246;SDS011;16272;48.188;9.964;2023-01-16T13:42:22;6.50;;;1.40;;
29246;SDS011;16272;48.188;9.964;2023-01-16T13:44:53;4.43;;;1.02;;
29246;SDS011;16272;48.188;9.964;2023-01-16T13:47:41;4.07;;;0.80;;
29246;SDS011;16272;48.188;9.964;2023-01-16T13:52:53;4.63;;;0.98;;
29246;SDS011;16272;48.188;9.964;2023-01-16T13:55:28;4.63;;;1.03;;
29246;SDS011;16272;48.188;9.964;2023-01-16T13:57:56;4.40;;;0.82;;
29246;SDS011;16272;48.188;9.964;2023-01-16T14:00:42;3.03;;;0.63;;
29246;SDS011;16272;48.188;9.964;2023-01-16T14:05:45;3.63;;;0.80;;
29246;SDS011;16272;48.188;9.964;2023-01-16T14:08:18;3.50;;;0.80;;
29246;SDS011;16272;48.188;9.964;2023-01-16T14:11:55;4.18;;;1.10;;
29246;SDS011;16272;48.188;9.964;2023-01-16T14:14:27;4.97;;;0.85;;
29246;SDS011;16272;48.188;9.964;2023-01-16T14:17:13;4.30;;;0.95;;
29246;SDS011;16272;48.188;9.964;2023-01-16T14:19:54;4.53;;;0.95;;
29246;SDS011;16272;48.188;9.964;2023-01-16T14:22:20;3.60;;;0.80;;
29246;SDS011;16272;48.188;9.964;2023-01-16T14:24:54;5.05;;;1.00;;
29246;SDS011;16272;48.188;9.964;2023-01-16T14:27:32;4.60;;;0.93;;
29246;SDS011;16272;48.188;9.964;2023-01-16T14:30:03;5.40;;;0.90;;
29246;SDS011;16272;48.188;9.964;2023-01-16T14:32:44;3.35;;;0.75;;
29246;SDS011;16272;48.188;9.964;2023-01-16T14:35:12;4.30;;;0.83;;
29246;SDS011;16272;48.188;9.964;2023-01-16T14:37:41;4.65;;;0.90;;
29246;SDS011;16272;48.188;9.964;2023-01-16T14:42:37;4.20;;;0.80;;
29246;SDS011;16272;48.188;9.964;2023-01-16T14:45:28;5.47;;;1.13;;
29246;SDS011;16272;48.188;9.964;2023-01-16T14:57:06;4.07;;;0.85;;
29246;SDS011;16272;48.188;9.964;2023-01-16T14:59:37;4.28;;;0.77;;
29246;SDS011;16272;48.188;9.964;2023-01-16T15:02:11;4.95;;;0.90;;
29246;SDS011;16272;48.188;9.964;2023-01-16T15:04:54;4.37;;;0.70;;
29246;SDS011;16272;48.188;9.964;2023-01-16T15:07:29;4.50;;;0.90;;
29246;SDS011;16272;48.188;9.964;2023-01-16T15:10:16;4.43;;;0.88;;
29246;SDS011;16272;48.188;9.964;2023-01-16T15:12:45;4.32;;;0.90;;
29246;SDS011;16272;48.188;9.964;2023-01-16T15:15:29;3.60;;;0.85;;
29246;SDS011;16272;48.188;9.964;2023-01-16T15:17:57;4.20;;;0.80;;
29246;SDS011;16272;48.188;9.964;2023-01-16T15:20:42;4.07;;;0.80;;
29246;SDS011;16272;48.188;9.964;2023-01-16T15:23:30;4.18;;;0.70;;
29246;SDS011;16272;48.188;9.964;2023-01-16T15:26:12;5.10;;;0.95;;
29246;SDS011;16272;48.188;9.964;2023-01-16T15:29:04;4.95;;;0.90;;
29246;SDS011;16272;48.188;9.964;2023-01-16T15:31:51;4.13;;;0.87;;
29246;SDS011;16272;48.188;9.964;2023-01-16T15:34:27;4.10;;;0.75;;
29246;SDS011;16272;48.188;9.964;2023-01-16T15:36:54;3.70;;;0.80;;
29246;SDS011;16272;48.188;9.964;2023-01-16T15:41:55;4.20;;;0.80;;
29246;SDS011;16272;48.188;9.964;2023-01-16T15:44:40;4.90;;;0.90;;
29246;SDS011;16272;48.188;9.964;2023-01-16T15:47:48;6.80;;;0.93;;
29246;SDS011;16272;48.188;9.964;2023-01-16T15:50:32;6.00;;;0.90;;
29246;SDS011;16272;48.188;9.964;2023-01-16T15:53:20;7.30;;;1.13;;
29246;SDS011;16272;48.188;9.964;2023-01-16T15:55:48;5.05;;;1.10;;
29246;SDS011;16272;48.188;9.964;2023-01-16T15:58:20;4.37;;;0.80;;
29246;SDS011;16272;48.188;9.964;2023-01-16T16:01:00;4.30;;;1.10;;
29246;SDS011;16272;48.188;9.964;2023-01-16T16:03:30;5.22;;;1.08;;
29246;SDS011;16272;48.188;9.964;2023-01-16T16:06:03;5.95;;;1.20;;
29246;SDS011;16272;48.188;9.964;2023-01-16T16:08:32;5.03;;;1.05;;
29246;SDS011;16272;48.188;9.964;2023-01-16T16:11:04;5.53;;;1.33;;
29246;SDS011;16272;48.188;9.964;2023-01-16T16:13:50;6.30;;;1.45;;
29246;SDS011;16272;48.188;9.964;2023-01-16T16:16:21;7.28;;;1.83;;
29246;SDS011;16272;48.188;9.964;2023-01-16T16:19:07;5.65;;;1.27;;
29246;SDS011;16272;48.188;9.964;2023-01-16T16:21:39;4.68;;;0.90;;
29246;SDS011;16272;48.188;9.964;2023-01-16T16:24:27;4.83;;;0.93;;
29246;SDS011;16272;48.188;9.964;2023-01-16T16:26:53;5.10;;;0.80;;
29246;SDS011;16272;48.188;9.964;2023-01-16T16:29:19;4.97;;;1.10;;
29246;SDS011;16272;48.188;9.964;2023-01-16T16:31:46;4.15;;;0.80;;
29246;SDS011;16272;48.188;9.964;2023-01-16T16:34:20;4.32;;;0.65;;
29246;SDS011;16272;48.188;9.964;2023-01-16T16:36:56;2.17;;;0.43;;
29246;SDS011;16272;48.188;9.964;2023-01-16T16:45:26;2.65;;;0.47;;
29246;SDS011;16272;48.188;9.964;2023-01-16T16:48:13;2.92;;;0.63;;
29246;SDS011;16272;48.188;9.964;2023-01-16T16:50:45;1.95;;;0.38;;
29246;SDS011;16272;48.188;9.964;2023-01-16T16:53:15;2.27;;;0.50;;
29246;SDS011;16272;48.188;9.964;2023-01-16T16:55:46;2.20;;;0.50;;
29246;SDS011;16272;48.188;9.964;2023-01-16T16:58:19;2.72;;;0.50;;
29246;SDS011;16272;48.188;9.964;2023-01-16T17:00:47;2.40;;;0.43;;
29246;SDS011;16272;48.188;9.964;2023-01-16T17:03:15;3.00;;;0.50;;
29246;SDS011;16272;48.188;9.964;2023-01-16T17:05:43;2.55;;;0.50;;
29246;SDS011;16272;48.188;9.964;2023-01-16T17:08:13;2.20;;;0.40;;
29246;SDS011;16272;48.188;9.964;2023-01-16T17:10:53;2.38;;;0.50;;
29246;SDS011;16272;48.188;9.964;2023-01-16T17:13:20;2.10;;;0.40;;
29246;SDS011;16272;48.188;9.964;2023-01-16T17:15:47;3.43;;;0.60;;
29246;SDS011;16272;48.188;9.964;2023-01-16T17:18:15;2.97;;;0.50;;
29246;SDS011;16272;48.188;9.964;2023-01-16T17:20:42;2.20;;;0.50;;
29246;SDS011;16272;48.188;9.964;2023-01-16T17:23:14;3.35;;;0.50;;
29246;SDS011;16272;48.188;9.964;2023-01-16T17:25:41;2.42;;;0.60;;
29246;SDS011;16272;48.188;9.964;2023-01-16T17:28:08;4.70;;;0.60;;
29246;SDS011;16272;48.188;9.964;2023-01-16T17:30:34;3.03;;;0.60;;
29246;SDS011;16272;48.188;9.964;2023-01-16T17:33:04;3.33;;;0.70;;
29246;SDS011;16272;48.188;9.964;2023-01-16T17:35:40;2.78;;;0.50;;
29246;SDS011;16272;48.188;9.964;2023-01-16T17:38:09;3.65;;;0.75;;
29246;SDS011;16272;48.188;9.964;2023-01-16T17:40:37;4.17;;;0.70;;
29246;SDS011;16272;48.188;9.964;2023-01-16T17:43:03;4.30;;;0.70;;
29246;SDS011;16272;48.188;9.964;2023-01-16T17:45:47;3.40;;;0.55;;